Terminal Aerodrome Forecast
Issued by NWS Portland, ME

Home | Current Version | Previous Version | Text Only | Print | Product List | Glossary On
Versions: 1 2 3 4 5 6 7 8 9 10 11 12 13 14 15 16 17
000
FTUS41 KGYX 271120
TAFCON
TAF
KCON 271120Z 2712/2812 31004KT 6SM -SHRA BR OVC025
     FM271330 VRB03KT P6SM BKN035
     FM271800 VRB03KT P6SM OVC050
     FM280500 34006KT 6SM -SHSN OVC035=

USA.gov is the U.S. government's official web portal to all federal, state and local government web resources and services.